Time;durP1;ratioP1;P1;durP2;ratioP2;P2;SDS_P1;SDS_P2;PMS_P1;PMS_P2;Temp;Humidity;BMP_temperature;BMP_pressure;BME280_temperature;BME280_humidity;BME280_pressure;Samples;Min_cycle;Max_cycle;Signal;HPM_P1;HPM_P2
2022/05/27 00:01:06;;;;;;;7.07;3.80;;;18.10;40.00;;;;;;5021095;28;20494;-76
2022/05/27 00:03:32;;;;;;;5.50;4.30;;;18.30;40.10;;;;;;5026336;28;20950;-76
2022/05/27 00:05:57;;;;;;;5.07;3.90;;;18.00;39.60;;;;;;5030346;28;20259;-76
2022/05/27 00:08:23;;;;;;;7.33;4.40;;;18.10;40.70;;;;;;5023365;28;20518;-76
2022/05/27 00:10:49;;;;;;;6.27;4.47;;;18.10;40.60;;;;;;5025274;28;20205;-76
2022/05/27 00:13:16;;;;;;;4.77;3.77;;;18.10;40.80;;;;;;5023724;28;20200;-76
2022/05/27 00:15:42;;;;;;;5.77;3.90;;;18.20;40.60;;;;;;5021266;28;20459;-76
2022/05/27 00:18:08;;;;;;;5.80;3.87;;;18.10;40.50;;;;;;5022080;28;20420;-76
2022/05/27 00:20:35;;;;;;;7.93;4.17;;;17.90;41.00;;;;;;5021229;28;20877;-76
2022/05/27 00:23:01;;;;;;;6.27;4.10;;;17.90;41.00;;;;;;5019226;28;20571;-76
2022/05/27 00:25:27;;;;;;;6.70;4.00;;;17.80;41.30;;;;;;5020657;28;20416;-76
2022/05/27 00:27:52;;;;;;;8.33;4.70;;;17.90;40.20;;;;;;5012153;28;20229;-76
2022/05/27 00:30:19;;;;;;;8.70;3.80;;;18.00;40.20;;;;;;5021720;28;20177;-76
2022/05/27 00:32:44;;;;;;;5.73;4.40;;;18.10;41.40;;;;;;5013072;28;20212;-76
2022/05/27 00:35:10;;;;;;;6.90;4.30;;;18.10;41.00;;;;;;5013338;28;20416;-76
2022/05/27 00:37:36;;;;;;;6.67;3.90;;;18.20;40.00;;;;;;5012654;28;20183;-76
2022/05/27 00:40:03;;;;;;;6.40;4.30;;;18.30;40.10;;;;;;5020769;28;20189;-76
2022/05/27 00:42:29;;;;;;;8.97;4.50;;;18.00;39.90;;;;;;5011878;28;20509;-76
2022/05/27 00:44:55;;;;;;;8.97;5.13;;;17.90;40.80;;;;;;5021073;28;20448;-76
2022/05/27 00:47:23;;;;;;;8.30;4.70;;;18.00;41.10;;;;;;5033017;28;20568;-76
2022/05/27 00:49:55;;;;;;;6.47;4.57;;;17.90;41.60;;;;;;5017658;28;20226;-76
2022/05/27 00:52:23;;;;;;;8.30;4.30;;;17.70;41.20;;;;;;5020978;28;20474;-76
2022/05/27 00:54:49;;;;;;;6.57;4.30;;;17.70;41.50;;;;;;5012929;28;20417;-76
2022/05/27 00:57:26;;;;;;;11.83;4.70;;;17.80;41.30;;;;;;5011261;28;22022;-76
2022/05/27 00:59:58;;;;;;;5.87;4.10;;;17.70;41.90;;;;;;5019573;28;20185;-76
2022/05/27 01:02:24;;;;;;;6.10;4.27;;;17.70;42.80;;;;;;5016922;28;20786;-76
2022/05/27 01:04:51;;;;;;;6.90;4.60;;;22.00;45.00;;;;;;5030073;28;20467;-76
2022/05/27 01:07:17;;;;;;;6.30;4.60;;;17.70;42.00;;;;;;5018178;28;20446;-76
2022/05/27 01:09:46;;;;;;;6.50;4.47;;;17.50;42.90;;;;;;5018354;28;20442;-76
2022/05/27 01:12:45;;;;;;;5.40;4.03;;;17.50;42.60;;;;;;5020509;28;20688;-76
2022/05/27 01:15:32;;;;;;;5.80;4.23;;;17.60;42.80;;;;;;5012338;28;20954;-76
2022/05/27 01:18:16;;;;;;;8.60;5.20;;;17.60;43.50;;;;;;5016468;28;20922;-76
2022/05/27 01:20:46;;;;;;;7.20;5.20;;;17.50;43.30;;;;;;5017874;28;20408;-76
2022/05/27 01:23:38;;;;;;;9.07;5.40;;;17.40;42.40;;;;;;5013240;28;20934;-76
2022/05/27 01:26:22;;;;;;;7.23;5.10;;;17.60;42.90;;;;;;5023261;28;20519;-76
2022/05/27 01:29:18;;;;;;;10.70;5.60;;;17.30;43.10;;;;;;5026863;28;20420;-76
2022/05/27 01:31:48;;;;;;;11.57;7.10;;;17.20;42.50;;;;;;5011931;28;22436;-76
2022/05/27 01:34:32;;;;;;;12.43;6.10;;;17.20;42.60;;;;;;5013343;28;20432;-76
2022/05/27 01:37:15;;;;;;;13.93;6.47;;;17.40;42.80;;;;;;5022433;28;20986;-76
2022/05/27 01:39:46;;;;;;;9.83;6.40;;;17.30;43.40;;;;;;5019368;28;20912;-76
2022/05/27 01:42:39;;;;;;;10.90;6.47;;;17.30;43.00;;;;;;5011709;28;20690;-76
2022/05/27 01:45:14;;;;;;;14.87;8.10;;;17.10;43.90;;;;;;5011990;28;20442;-76
2022/05/27 01:47:54;;;;;;;15.97;7.60;;;;;;;;;;5018457;28;20780;-75
2022/05/27 01:50:36;;;;;;;10.30;7.93;;;17.10;43.50;;;;;;5025932;28;20434;-75
2022/05/27 01:53:10;;;;;;;14.07;7.97;;;17.00;45.60;;;;;;5023430;28;20439;-75
2022/05/27 01:55:42;;;;;;;9.33;7.50;;;17.00;44.50;;;;;;5023928;28;20507;-75
2022/05/27 01:58:17;;;;;;;10.83;7.47;;;17.00;44.30;;;;;;5020351;28;20431;-75
2022/05/27 02:00:44;;;;;;;11.17;7.50;;;16.90;45.40;;;;;;5026591;28;20415;-75
2022/05/27 02:03:28;;;;;;;13.20;7.23;;;16.90;44.50;;;;;;5019222;28;20921;-75
2022/05/27 02:06:40;;;;;;;15.70;6.90;;;17.00;44.90;;;;;;5027723;28;20884;-75
2022/05/27 02:09:15;;;;;;;10.00;7.40;;;17.20;43.20;;;;;;5028726;28;20419;-75
2022/05/27 02:11:45;;;;;;;9.73;7.00;;;17.20;43.90;;;;;;5018556;28;20843;-75
2022/05/27 02:14:27;;;;;;;12.77;7.07;;;17.20;44.50;;;;;;5019761;28;20416;-75
2022/05/27 02:17:22;;;;;;;11.07;6.93;;;17.00;44.70;;;;;;5010878;28;20435;-75
2022/05/27 02:19:50;;;;;;;15.30;7.17;;;16.90;45.30;;;;;;5014146;28;20420;-75
2022/05/27 02:22:24;;;;;;;13.40;7.47;;;16.90;44.90;;;;;;5011026;28;20440;-75
2022/05/27 02:25:00;;;;;;;12.43;7.57;;;16.90;45.00;;;;;;5011581;28;20431;-75
2022/05/27 02:27:37;;;;;;;12.87;7.70;;;16.90;45.60;;;;;;5011586;28;20413;-75
2022/05/27 02:30:07;;;;;;;10.50;6.90;;;16.90;46.00;;;;;;5010590;28;20471;-75
2022/05/27 02:32:39;;;;;;;10.27;7.57;;;16.90;45.60;;;;;;5018563;28;20480;-75
2022/05/27 02:35:28;;;;;;;9.57;6.93;;;17.00;45.60;;;;;;5011478;28;20454;-75
2022/05/27 02:37:59;;;;;;;9.50;7.33;;;16.90;46.00;;;;;;5015413;28;20443;-75
2022/05/27 02:40:37;;;;;;;10.40;6.40;;;17.10;43.60;;;;;;5015665;28;20401;-75
2022/05/27 02:43:12;;;;;;;11.07;7.10;;;16.90;45.00;;;;;;5022523;28;20545;-75
2022/05/27 02:45:54;;;;;;;9.70;6.27;;;16.70;45.20;;;;;;5019468;28;20404;-75
2022/05/27 02:48:28;;;;;;;12.33;6.53;;;17.00;45.30;;;;;;5015009;28;20791;-76
2022/05/27 02:51:05;;;;;;;9.80;6.97;;;16.70;45.20;;;;;;5014805;28;20473;-76
2022/05/27 02:53:31;;;;;;;10.40;6.60;;;16.60;45.70;;;;;;5014966;28;20428;-76
2022/05/27 02:56:18;;;;;;;9.37;6.90;;;16.90;44.70;;;;;;5014271;28;21286;-76
2022/05/27 02:58:44;;;;;;;10.83;6.57;;;16.90;45.30;;;;;;5020281;28;20604;-76
2022/05/27 03:01:10;;;;;;;10.50;6.50;;;16.70;47.10;;;;;;5017800;28;20436;-76
2022/05/27 03:03:36;;;;;;;8.87;6.00;;;16.60;46.90;;;;;;5026370;28;20221;-76
2022/05/27 03:06:26;;;;;;;15.30;6.50;;;16.50;46.60;;;;;;5018476;28;20420;-76
2022/05/27 03:09:06;;;;;;;10.20;6.70;;;16.60;45.30;;;;;;5012901;28;21028;-76
2022/05/27 03:11:38;;;;;;;11.63;6.27;;;16.50;45.40;;;;;;5022766;28;20475;-76
2022/05/27 03:14:12;;;;;;;14.33;6.33;;;16.50;46.00;;;;;;5032109;28;20502;-76
2022/05/27 03:16:41;;;;;;;8.47;5.73;;;16.90;43.20;;;;;;5023510;28;20770;-76
2022/05/27 03:19:39;;;;;;;8.50;5.60;;;16.90;43.70;;;;;;5026107;28;20797;-76
2022/05/27 03:22:41;;;;;;;11.10;5.60;;;16.90;43.70;;;;;;5001506;28;20466;-76
2022/05/27 03:25:28;;;;;;;8.00;5.63;;;16.80;44.70;;;;;;5024200;28;20428;-76
2022/05/27 03:28:12;;;;;;;7.27;5.70;;;16.60;46.00;;;;;;5013534;28;20422;-76
2022/05/27 03:30:59;;;;;;;11.23;5.87;;;16.50;45.60;;;;;;5014678;28;20420;-76
2022/05/27 03:34:05;;;;;;;9.83;6.00;;;16.40;46.80;;;;;;5020970;28;20454;-75
2022/05/27 03:36:46;;;;;;;9.60;5.77;;;16.30;46.90;;;;;;4984580;28;20439;-75
2022/05/27 03:39:22;;;;;;;11.10;6.00;;;16.30;46.80;;;;;;5024829;28;20465;-75
2022/05/27 03:41:54;;;;;;;12.30;6.43;;;16.30;45.90;;;;;;5033867;28;20458;-75
2022/05/27 03:44:22;;;;;;;12.70;6.57;;;16.50;46.70;;;;;;5034236;28;20387;-75
2022/05/27 03:46:50;;;;;;;10.03;6.70;;;16.40;47.30;;;;;;5032873;28;20906;-75
2022/05/27 03:49:16;;;;;;;11.30;6.90;;;16.60;46.90;;;;;;5015652;28;20478;-75
2022/05/27 03:52:08;;;;;;;10.90;6.17;;;16.50;45.80;;;;;;5025169;28;20542;-75
2022/05/27 03:54:34;;;;;;;11.67;6.97;;;16.40;46.50;;;;;;5033971;28;20457;-75
2022/05/27 03:57:00;;;;;;;12.50;6.20;;;16.30;46.20;;;;;;5025933;28;20436;-76
2022/05/27 03:59:26;;;;;;;9.27;6.63;;;16.40;46.00;;;;;;5023211;28;20837;-76
2022/05/27 04:01:55;;;;;;;11.77;6.93;;;16.20;44.30;;;;;;5020340;28;20287;-76
2022/05/27 04:04:24;;;;;;;12.63;7.60;;;16.30;44.70;;;;;;5025440;28;21075;-76
2022/05/27 04:06:49;;;;;;;9.60;6.90;;;16.20;44.10;;;;;;5033583;28;20891;-76
2022/05/27 04:09:17;;;;;;;10.50;7.83;;;16.10;45.20;;;;;;5023062;28;20443;-75
2022/05/27 04:11:44;;;;;;;11.23;8.40;;;16.10;46.30;;;;;;5013573;28;20459;-75
2022/05/27 04:14:10;;;;;;;11.80;7.13;;;16.10;46.40;;;;;;5013814;28;20409;-75
2022/05/27 04:16:36;;;;;;;11.33;7.33;;;15.90;46.90;;;;;;5021002;28;20436;-75
2022/05/27 04:19:02;;;;;;;9.17;5.77;;;16.30;46.50;;;;;;5027370;28;20950;-75
2022/05/27 04:21:27;;;;;;;10.93;6.60;;;16.80;42.70;;;;;;5012275;28;20416;-76
2022/05/27 04:23:54;;;;;;;10.17;6.67;;;16.80;43.30;;;;;;5017821;28;20435;-77
2022/05/27 04:26:20;;;;;;;7.00;5.57;;;17.00;43.60;;;;;;5033390;28;20173;-77
2022/05/27 04:28:45;;;;;;;9.50;5.97;;;16.90;42.70;;;;;;5021437;28;20792;-77
2022/05/27 04:31:11;;;;;;;9.50;5.70;;;17.20;41.30;;;;;;5021166;28;20204;-75
2022/05/27 04:33:37;;;;;;;8.30;5.53;;;17.00;43.60;;;;;;5008648;28;20206;-75
2022/05/27 04:36:04;;;;;;;8.20;5.40;;;17.20;42.00;;;;;;5014524;28;20182;-75
2022/05/27 04:38:30;;;;;;;9.10;5.53;;;17.20;43.00;;;;;;5023115;28;20443;-75
2022/05/27 04:40:56;;;;;;;10.67;6.20;;;17.30;42.90;;;;;;5006094;28;20935;-75
2022/05/27 04:43:23;;;;;;;7.60;6.00;;;17.10;44.30;;;;;;5021925;28;20834;-75
2022/05/27 04:45:49;;;;;;;10.30;5.97;;;17.10;44.80;;;;;;5020777;28;20512;-75
2022/05/27 04:48:17;;;;;;;10.33;5.70;;;17.10;44.30;;;;;;5012817;28;20416;-76
2022/05/27 04:50:43;;;;;;;8.00;6.00;;;17.10;45.10;;;;;;5012739;28;20491;-76
2022/05/27 04:53:10;;;;;;;10.93;5.97;;;17.10;44.10;;;;;;5019591;28;20460;-76
2022/05/27 04:55:37;;;;;;;14.77;6.20;;;17.30;44.70;;;;;;5015623;28;20170;-76
2022/05/27 04:58:03;;;;;;;7.80;5.70;;;17.30;44.60;;;;;;5021648;28;20939;-75
2022/05/27 05:00:34;;;;;;;10.80;6.23;;;17.40;45.50;;;;;;5033086;28;20412;-75
2022/05/27 05:03:00;;;;;;;9.83;6.13;;;17.50;45.50;;;;;;5024875;28;20455;-75
2022/05/27 05:05:29;;;;;;;9.20;6.27;;;17.70;44.20;;;;;;5025216;28;20446;-76
2022/05/27 05:08:05;;;;;;;12.07;6.87;;;17.70;44.90;;;;;;5029662;28;20759;-76
2022/05/27 05:10:31;;;;;;;7.50;5.60;;;17.80;44.40;;;;;;5008626;28;20495;-76
2022/05/27 05:12:58;;;;;;;9.43;5.33;;;17.80;44.80;;;;;;5014943;28;20464;-76
2022/05/27 05:15:25;;;;;;;10.60;5.90;;;18.00;45.00;;;;;;5012535;28;20968;-76
2022/05/27 05:17:51;;;;;;;8.10;5.20;;;18.20;44.00;;;;;;5021093;28;20511;-76
2022/05/27 05:20:22;;;;;;;7.83;5.37;;;18.40;41.10;;;;;;5019193;28;20450;-76
2022/05/27 05:22:48;;;;;;;10.30;5.30;;;18.40;42.70;;;;;;5022677;28;20451;-76
2022/05/27 05:25:14;;;;;;;9.00;4.90;;;18.60;41.70;;;;;;5013370;28;20432;-76
2022/05/27 05:27:41;;;;;;;10.63;4.70;;;18.70;42.40;;;;;;5022770;28;20407;-75
2022/05/27 05:30:09;;;;;;;7.87;4.20;;;18.40;40.40;;;;;;5015038;28;20449;-75
2022/05/27 05:32:35;;;;;;;9.83;4.13;;;18.40;41.70;;;;;;5022291;28;20579;-75
2022/05/27 05:35:00;;;;;;;10.63;3.87;;;18.50;41.70;;;;;;5017456;28;20436;-75
2022/05/27 05:37:27;;;;;;;6.93;4.50;;;18.50;40.20;;;;;;5022868;28;20262;-75
2022/05/27 05:39:53;;;;;;;12.50;4.43;;;18.60;39.70;;;;;;5009439;28;20190;-75
2022/05/27 05:42:19;;;;;;;6.47;4.20;;;18.30;40.80;;;;;;5025150;28;20469;-75
2022/05/27 05:44:45;;;;;;;8.53;3.90;;;18.40;41.00;;;;;;5016706;28;20449;-76
2022/05/27 05:47:11;;;;;;;8.00;4.30;;;18.50;40.40;;;;;;5020296;28;20798;-75
2022/05/27 05:49:37;;;;;;;15.23;4.00;;;18.60;39.70;;;;;;5016439;28;20436;-79
2022/05/27 05:52:03;;;;;;;7.90;3.90;;;18.50;39.70;;;;;;5016915;28;20478;-76
2022/05/27 05:54:29;;;;;;;8.07;3.97;;;18.50;39.70;;;;;;5022855;28;20687;-76
2022/05/27 05:56:59;;;;;;;8.50;4.17;;;18.40;40.90;;;;;;5031715;28;20422;-76
2022/05/27 05:59:31;;;;;;;10.63;4.47;;;18.30;41.50;;;;;;5020970;28;20468;-76
2022/05/27 06:01:58;;;;;;;11.70;4.10;;;18.30;40.90;;;;;;5012684;28;20557;-76
2022/05/27 06:04:24;;;;;;;5.57;3.30;;;18.10;42.30;;;;;;5023085;28;20413;-76
2022/05/27 06:06:50;;;;;;;5.67;3.83;;;18.20;41.70;;;;;;5023964;28;21209;-76
2022/05/27 06:09:15;;;;;;;8.20;4.10;;;18.90;39.80;;;;;;5021722;28;20480;-76
2022/05/27 06:11:42;;;;;;;4.73;3.80;;;18.70;38.80;;;;;;5009740;28;20503;-76
2022/05/27 06:14:07;;;;;;;10.23;4.33;;;18.50;39.60;;;;;;5012594;28;20180;-76
2022/05/27 06:16:33;;;;;;;6.63;4.20;;;17.70;42.50;;;;;;5017411;28;20439;-75
2022/05/27 06:18:59;;;;;;;6.10;4.17;;;17.60;43.50;;;;;;5009726;28;20177;-75
2022/05/27 06:21:26;;;;;;;6.83;4.13;;;18.10;42.80;;;;;;5011071;28;20444;-76
2022/05/27 06:23:52;;;;;;;10.33;3.93;;;18.20;41.60;;;;;;5015092;28;20471;-75
2022/05/27 06:26:18;;;;;;;9.10;4.50;;;17.80;43.70;;;;;;5013352;28;20473;-76
2022/05/27 06:34:24;;;;;;;18.33;3.90;;;18.60;41.40;;;;;;5014589;28;20433;-76
2022/05/27 06:36:56;;;;;;;6.60;4.17;;;18.10;41.60;;;;;;5015854;28;20431;-76
2022/05/27 06:39:23;;;;;;;46.80;4.80;;;17.90;44.10;;;;;;5003265;28;20444;-76
2022/05/27 06:41:50;;;;;;;4.97;3.80;;;17.80;44.20;;;;;;5021605;28;20568;-75
2022/05/27 06:44:17;;;;;;;8.10;3.80;;;18.20;42.80;;;;;;5014536;28;20477;-76
2022/05/27 06:46:43;;;;;;;6.93;3.90;;;18.10;42.20;;;;;;5019381;28;20426;-77
2022/05/27 06:49:09;;;;;;;8.40;4.13;;;18.10;42.80;;;;;;5019120;28;20430;-76
2022/05/27 06:51:36;;;;;;;8.10;4.03;;;18.00;43.70;;;;;;5019699;28;20468;-76
2022/05/27 06:54:03;;;;;;;6.20;3.90;;;18.40;42.20;;;;;;5019835;28;20505;-76
2022/05/27 06:56:28;;;;;;;8.20;3.87;;;18.40;40.80;;;;;;5026938;28;20835;-76
2022/05/27 06:58:54;;;;;;;5.60;3.73;;;18.80;40.00;;;;;;5019256;28;20485;-74
2022/05/27 07:01:20;;;;;;;11.43;4.80;;;18.30;40.10;;;;;;5022403;28;20516;-76
2022/05/27 07:03:45;;;;;;;7.57;3.97;;;18.00;43.00;;;;;;5029992;28;20577;-76
2022/05/27 07:06:12;;;;;;;14.23;4.40;;;18.30;41.00;;;;;;5018911;28;20572;-76
2022/05/27 07:08:38;;;;;;;5.60;3.53;;;18.50;41.50;;;;;;5015004;28;20223;-76
2022/05/27 07:11:04;;;;;;;6.20;3.60;;;18.80;39.70;;;;;;5011640;28;20501;-75
2022/05/27 07:13:31;;;;;;;10.30;3.90;;;18.50;40.30;;;;;;5022458;28;20427;-76
2022/05/27 07:15:56;;;;;;;9.60;3.87;;;18.60;40.30;;;;;;5029557;28;20411;-77
2022/05/27 07:18:22;;;;;;;5.17;3.30;;;18.50;40.20;;;;;;5010186;28;20542;-75
2022/05/27 07:20:48;;;;;;;6.17;3.73;;;18.30;42.40;;;;;;5018813;28;20786;-77
2022/05/27 07:23:14;;;;;;;5.10;3.17;;;18.80;40.10;;;;;;5011439;28;20565;-76
2022/05/27 07:25:40;;;;;;;12.07;3.90;;;18.80;39.50;;;;;;5010252;28;20234;-76
2022/05/27 07:28:07;;;;;;;8.83;3.43;;;18.80;39.90;;;;;;5012559;28;20438;-75
2022/05/27 07:30:33;;;;;;;6.23;3.70;;;18.70;40.40;;;;;;5018918;28;20188;-76
2022/05/27 07:32:59;;;;;;;9.13;3.80;;;18.60;39.70;;;;;;5018975;28;20475;-76
2022/05/27 07:35:25;;;;;;;7.23;3.90;;;19.00;40.10;;;;;;5008599;28;20562;-76
2022/05/27 07:37:50;;;;;;;7.50;3.37;;;19.00;39.20;;;;;;5025109;28;20191;-75
2022/05/27 07:40:16;;;;;;;4.97;3.50;;;18.90;39.10;;;;;;5014484;28;20765;-76
2022/05/27 07:42:42;;;;;;;7.20;3.57;;;19.00;39.70;;;;;;5021186;28;20809;-76
2022/05/27 07:45:10;;;;;;;8.33;3.80;;;19.00;38.70;;;;;;5031974;28;20420;-76
2022/05/27 07:47:36;;;;;;;9.13;4.23;;;19.00;39.10;;;;;;5023022;28;20191;-76
2022/05/27 07:50:02;;;;;;;7.10;3.80;;;18.60;39.70;;;;;;5016357;28;20443;-76
2022/05/27 07:52:28;;;;;;;8.03;3.70;;;18.40;40.30;;;;;;5021190;28;20255;-76
2022/05/27 07:54:55;;;;;;;9.13;4.43;;;18.50;40.20;;;;;;5013746;28;20416;-75
2022/05/27 07:57:25;;;;;;;6.77;3.90;;;18.80;40.40;;;;;;5014018;28;20565;-75
2022/05/27 08:00:04;;;;;;;6.90;3.70;;;18.80;39.40;;;;;;5013769;28;20787;-75
2022/05/27 08:02:31;;;;;;;5.07;3.47;;;;;;;;;;5013768;28;20443;-75
2022/05/27 08:04:57;;;;;;;10.63;4.07;;;18.90;39.10;;;;;;5013605;28;20408;-75
2022/05/27 08:07:24;;;;;;;6.43;4.00;;;19.00;38.70;;;;;;5013659;28;20441;-75
2022/05/27 08:09:49;;;;;;;8.23;4.13;;;19.10;38.60;;;;;;5013718;28;20418;-76
2022/05/27 08:12:15;;;;;;;5.20;3.80;;;18.90;39.60;;;;;;5013410;28;20470;-75
2022/05/27 08:14:41;;;;;;;6.03;4.20;;;19.20;38.90;;;;;;5013575;28;20718;-75
2022/05/27 08:17:06;;;;;;;5.60;4.20;;;19.00;39.30;;;;;;5013370;28;20188;-76
2022/05/27 08:19:32;;;;;;;6.60;4.13;;;19.20;38.70;;;;;;5013330;28;20199;-75
2022/05/27 08:21:58;;;;;;;14.63;3.83;;;19.60;37.80;;;;;;5013243;28;20232;-75
2022/05/27 08:24:24;;;;;;;8.87;4.00;;;19.60;38.10;;;;;;5013150;28;20181;-75
2022/05/27 08:26:49;;;;;;;6.20;3.90;;;19.10;38.40;;;;;;5013585;28;20490;-75
2022/05/27 08:29:16;;;;;;;7.10;4.03;;;18.80;39.20;;;;;;5013131;28;20184;-75
2022/05/27 08:31:42;;;;;;;7.50;4.50;;;18.50;40.40;;;;;;5013451;28;20205;-75
2022/05/27 08:39:42;;;;;;;14.43;4.23;;;19.60;37.80;;;;;;5013420;28;20415;-75
2022/05/27 08:42:17;;;;;;;14.80;3.93;;;19.50;38.10;;;;;;5012955;28;20901;-75
2022/05/27 08:44:53;;;;;;;7.37;4.00;;;19.00;39.20;;;;;;5011947;28;20928;-75
2022/05/27 08:47:33;;;;;;;6.90;4.30;;;19.00;40.00;;;;;;5013053;28;20394;-75
2022/05/27 08:50:21;;;;;;;5.90;4.10;;;18.00;42.40;;;;;;5012815;28;20414;-75
2022/05/27 08:52:52;;;;;;;8.73;4.13;;;18.00;43.90;;;;;;5012539;28;20473;-75
2022/05/27 09:01:23;;;;;;;7.60;4.17;;;18.50;42.60;;;;;;5012558;28;20429;-75
2022/05/27 09:04:00;;;;;;;7.10;4.10;;;18.50;42.90;;;;;;5012507;28;20440;-75
2022/05/27 09:06:35;;;;;;;8.00;3.90;;;18.60;41.20;;;;;;5012731;28;20417;-75
2022/05/27 09:09:03;;;;;;;8.30;4.37;;;18.50;42.10;;;;;;5012639;28;20418;-75
2022/05/27 09:11:43;;;;;;;9.20;4.57;;;18.80;41.10;;;;;;5012256;28;20907;-75
2022/05/27 09:14:22;;;;;;;8.87;3.60;;;18.80;41.70;;;;;;5012463;28;20388;-75
2022/05/27 09:16:58;;;;;;;11.27;4.07;;;18.10;42.60;;;;;;5012569;28;20478;-76
2022/05/27 09:19:42;;;;;;;8.90;4.03;;;18.00;43.30;;;;;;5012433;28;20412;-75
2022/05/27 09:22:12;;;;;;;6.70;3.67;;;18.00;44.10;;;;;;5012049;28;20971;-75
2022/05/27 09:24:53;;;;;;;7.87;4.10;;;18.00;43.20;;;;;;5012266;28;20412;-75
2022/05/27 09:27:47;;;;;;;8.13;4.37;;;18.30;42.90;;;;;;5012388;28;20898;-75
2022/05/27 09:30:17;;;;;;;7.10;3.97;;;18.50;42.20;;;;;;5012189;28;20413;-75
2022/05/27 09:32:51;;;;;;;7.50;4.20;;;18.30;41.80;;;;;;5011729;28;20464;-75
2022/05/27 09:35:31;;;;;;;10.97;4.17;;;18.80;39.50;;;;;;5012185;28;20763;-75
2022/05/27 09:38:01;;;;;;;7.93;3.90;;;18.60;39.70;;;;;;5012108;28;20409;-75
2022/05/27 09:40:48;;;;;;;8.07;4.47;;;18.40;41.30;;;;;;5012091;28;20413;-75
2022/05/27 09:43:13;;;;;;;6.30;3.70;;;18.60;40.80;;;;;;5011508;28;20544;-75
2022/05/27 09:45:40;;;;;;;8.67;3.90;;;18.60;40.80;;;;;;5011908;28;20499;-75
2022/05/27 09:48:07;;;;;;;6.33;3.73;;;19.20;39.50;;;;;;5011887;28;20201;-75
2022/05/27 09:50:46;;;;;;;5.17;4.10;;;19.40;38.70;;;;;;5011663;28;20459;-75
2022/05/27 09:53:22;;;;;;;10.60;4.40;;;19.60;38.30;;;;;;5011776;28;20476;-75
2022/05/27 09:56:04;;;;;;;7.07;3.70;;;19.60;38.70;;;;;;5011401;28;20443;-75
2022/05/27 09:58:36;;;;;;;7.03;3.90;;;19.50;38.40;;;;;;5011790;28;20444;-75
2022/05/27 10:01:17;;;;;;;7.53;4.13;;;19.00;39.20;;;;;;5011653;28;20892;-75
2022/05/27 10:03:43;;;;;;;7.17;4.23;;;18.70;39.80;;;;;;5011373;28;20441;-74
2022/05/27 10:06:15;;;;;;;11.40;5.57;;;18.70;40.80;;;;;;5011775;28;20807;-75
2022/05/27 10:08:45;;;;;;;6.67;3.97;;;19.50;38.90;;;;;;5011802;28;20156;-75
2022/05/27 10:11:16;;;;;;;13.33;3.70;;;19.80;37.70;;;;;;5011322;28;20415;-75
2022/05/27 10:13:42;;;;;;;13.03;3.70;;;20.10;37.30;;;;;;5011369;28;20437;-75
2022/05/27 10:16:11;;;;;;;8.20;3.67;;;20.30;36.30;;;;;;5011533;28;20825;-75
2022/05/27 10:18:41;;;;;;;4.90;3.53;;;19.80;37.60;;;;;;5011661;28;20494;-75
2022/05/27 10:21:19;;;;;;;13.20;4.00;;;20.50;35.80;;;;;;5011338;28;20453;-75
2022/05/27 10:23:48;;;;;;;6.17;3.80;;;20.00;35.80;;;;;;5010911;28;20511;-75
2022/05/27 10:26:25;;;;;;;8.17;3.60;;;19.90;36.20;;;;;;5011210;28;20510;-75
2022/05/27 10:29:06;;;;;;;4.93;4.00;;;20.10;35.40;;;;;;5011313;28;20892;-75
2022/05/27 10:31:33;;;;;;;6.57;3.90;;;20.00;35.70;;;;;;5010825;28;20481;-75
2022/05/27 10:34:00;;;;;;;6.23;3.97;;;20.00;36.00;;;;;;5011254;28;20918;-75
2022/05/27 10:36:50;;;;;;;19.50;3.90;;;20.40;36.00;;;;;;5011276;28;20472;-75
2022/05/27 10:39:34;;;;;;;17.77;6.27;;;20.50;36.00;;;;;;5011398;28;20447;-75
2022/05/27 10:42:19;;;;;;;8.03;4.20;;;20.60;35.00;;;;;;5011100;28;20455;-75
2022/05/27 10:45:11;;;;;;;9.23;3.60;;;21.10;34.30;;;;;;5010976;28;20455;-75
2022/05/27 10:48:15;;;;;;;6.77;3.80;;;21.50;33.70;;;;;;5010042;28;20982;-75
2022/05/27 10:51:05;;;;;;;5.80;3.93;;;20.80;33.40;;;;;;5005345;28;20435;-76
2022/05/27 10:53:59;;;;;;;6.07;3.63;;;19.90;36.00;;;;;;5011113;28;20447;-75
2022/05/27 10:56:31;;;;;;;6.03;3.70;;;20.40;35.60;;;;;;5011534;28;20840;-75
2022/05/27 11:02:33;;;;;;;5.30;3.70;;;20.80;33.70;;;;;;5010901;28;20418;-75
2022/05/27 11:05:11;;;;;;;6.07;3.63;;;20.80;33.40;;;;;;5010791;28;20398;-75
2022/05/27 11:07:57;;;;;;;7.10;3.63;;;19.50;33.40;;;;;;5011473;28;20987;-75
2022/05/27 11:10:34;;;;;;;4.90;3.63;;;19.40;34.90;;;;;;5014918;28;20428;-75
2022/05/27 11:16:23;;;;;;;5.40;3.77;;;19.30;35.40;;;;;;5014338;28;20392;-74
2022/05/27 11:19:04;;;;;;;6.07;3.50;;;19.90;35.80;;;;;;5014879;28;20450;-75
2022/05/27 11:21:36;;;;;;;7.13;3.60;;;20.00;33.40;;;;;;5014699;28;20487;-75
2022/05/27 11:24:25;;;;;;;6.70;3.73;;;20.10;34.10;;;;;;5013231;28;20433;-75
2022/05/27 11:27:22;;;;;;;7.03;3.43;;;20.30;33.70;;;;;;5014305;28;20449;-75
2022/05/27 11:29:57;;;;;;;5.33;3.37;;;20.00;34.50;;;;;;5014622;28;20438;-75
2022/05/27 11:32:40;;;;;;;5.57;3.23;;;20.40;34.30;;;;;;5012833;28;20459;-75
2022/05/27 11:35:40;;;;;;;5.00;3.20;;;20.70;32.40;;;;;;5014376;28;20406;-75
2022/05/27 11:38:14;;;;;;;4.40;3.03;;;20.90;33.00;;;;;;5014440;28;20774;-75
2022/05/27 11:40:54;;;;;;;5.20;3.00;;;22.50;29.00;;;;;;5014286;28;20498;-75
2022/05/27 11:43:58;;;;;;;7.10;3.00;;;21.80;28.60;;;;;;5014147;28;20491;-76
2022/05/27 11:46:42;;;;;;;3.93;2.93;;;21.60;29.70;;;;;;5014171;28;20895;-75
2022/05/27 11:49:29;;;;;;;9.43;3.33;;;22.50;30.30;;;;;;5014184;28;20416;-75
2022/05/27 11:52:18;;;;;;;7.13;2.90;;;23.10;28.00;;;;;;5013745;28;20542;-76
2022/05/27 11:54:50;;;;;;;6.70;3.37;;;23.20;27.40;;;;;;4994259;28;20428;-75
2022/05/27 11:57:36;;;;;;;6.60;3.17;;;22.40;27.70;;;;;;5013883;28;20399;-75
2022/05/27 12:00:24;;;;;;;8.77;3.27;;;21.80;28.90;;;;;;5014062;28;20412;-76
2022/05/27 12:02:59;;;;;;;6.80;2.87;;;21.40;30.30;;;;;;5013751;28;20432;-76
2022/05/27 12:05:36;;;;;;;4.50;3.00;;;21.50;30.00;;;;;;5013904;28;20431;-75
2022/05/27 12:08:29;;;;;;;4.47;2.83;;;21.20;28.90;;;;;;5013845;28;20422;-76
2022/05/27 12:11:02;;;;;;;6.00;3.40;;;21.70;28.00;;;;;;5013928;28;20987;-76
2022/05/27 12:13:56;;;;;;;4.20;3.07;;;21.30;29.00;;;;;;5013882;28;20470;-76
2022/05/27 12:16:27;;;;;;;3.43;2.93;;;21.40;29.70;;;;;;5013447;28;20418;-75
2022/05/27 12:19:08;;;;;;;6.30;3.30;;;21.70;28.60;;;;;;5013784;28;20383;-76
2022/05/27 12:21:46;;;;;;;6.97;3.30;;;21.20;29.40;;;;;;5013831;28;20392;-76
2022/05/27 12:24:49;;;;;;;11.80;3.27;;;21.30;29.50;;;;;;5014471;28;20424;-76
2022/05/27 12:27:18;;;;;;;11.43;3.40;;;20.50;30.70;;;;;;4971938;28;20432;-76
2022/05/27 12:29:47;;;;;;;5.87;3.23;;;20.20;32.10;;;;;;4972138;28;20458;-75
2022/05/27 12:32:14;;;;;;;9.20;3.70;;;20.10;31.90;;;;;;4971590;28;20472;-75
2022/05/27 12:34:50;;;;;;;4.47;3.20;;;20.10;32.10;;;;;;4971865;28;20413;-75
2022/05/27 12:37:23;;;;;;;5.00;3.23;;;20.20;32.10;;;;;;4971823;28;20899;-75
2022/05/27 12:39:50;;;;;;;7.90;4.40;;;20.10;31.50;;;;;;4971961;28;20408;-75
2022/05/27 12:42:21;;;;;;;8.17;3.50;;;19.90;32.70;;;;;;4971353;28;20461;-75
2022/05/27 12:44:48;;;;;;;5.10;3.30;;;20.00;32.80;;;;;;4971667;28;20466;-75
2022/05/27 12:47:20;;;;;;;5.10;3.20;;;20.00;32.40;;;;;;4971629;28;20419;-75
2022/05/27 12:50:06;;;;;;;7.87;3.50;;;20.20;32.00;;;;;;4971504;28;20424;-75
2022/05/27 12:52:32;;;;;;;8.60;4.00;;;20.30;31.50;;;;;;4971274;28;21101;-75
2022/05/27 12:55:11;;;;;;;9.17;3.83;;;20.70;31.10;;;;;;4971503;28;20867;-75
2022/05/27 13:00:57;;;;;;;8.50;3.00;;;22.10;29.60;;;;;;4982939;28;20411;-76
2022/05/27 13:03:36;;;;;;;9.93;2.87;;;22.00;27.70;;;;;;5012715;28;20424;-75
2022/05/27 13:06:25;;;;;;;10.13;3.47;;;21.40;29.60;;;;;;5012617;28;20422;-76
2022/05/27 13:08:51;;;;;;;14.83;2.63;;;21.10;29.10;;;;;;5012864;28;20389;-76
2022/05/27 13:11:37;;;;;;;3.87;2.70;;;21.80;30.20;;;;;;5011200;28;20798;-76
2022/05/27 13:14:03;;;;;;;4.90;3.13;;;22.70;29.80;;;;;;5005479;28;20227;-75
2022/05/27 13:16:43;;;;;;;8.90;3.20;;;23.00;28.10;;;;;;5012526;28;20442;-75
2022/05/27 13:19:26;;;;;;;7.30;3.03;;;23.10;28.20;;;;;;5012680;28;20165;-75
2022/05/27 13:21:52;;;;;;;8.10;3.00;;;23.50;27.10;;;;;;5012061;28;20424;-76
2022/05/27 13:24:17;;;;;;;4.63;3.07;;;23.10;26.20;;;;;;5012496;28;20415;-75
2022/05/27 13:26:51;;;;;;;6.53;2.77;;;22.50;27.80;;;;;;5012291;28;20181;-76
2022/05/27 13:29:28;;;;;;;9.30;3.20;;;22.30;27.70;;;;;;5012447;28;20173;-75
2022/05/27 13:32:13;;;;;;;7.40;3.00;;;22.20;28.40;;;;;;5011501;28;20841;-75
2022/05/27 13:35:12;;;;;;;6.30;3.47;;;22.30;28.10;;;;;;5012341;28;20405;-76
2022/05/27 13:37:38;;;;;;;4.30;2.97;;;22.70;27.40;;;;;;5012104;28;20418;-76
2022/05/27 13:40:11;;;;;;;4.20;3.00;;;23.10;27.00;;;;;;5011034;28;20892;-75
2022/05/27 13:42:52;;;;;;;4.13;2.60;;;22.70;27.70;;;;;;5011676;28;20304;-75